createdAt,value
2018-12-10T00:04:49.485Z,99870.00
2018-12-10T00:09:54.202Z,99869.00
2018-12-10T00:14:56.979Z,99880.27
2018-12-10T00:19:59.728Z,99883.80
2018-12-10T00:25:02.628Z,99898.57
2018-12-10T00:30:07.481Z,99911.50
2018-12-10T00:35:11.811Z,99910.78
2018-12-10T00:40:14.673Z,99914.48
2018-12-10T00:45:17.529Z,99934.05
2018-12-10T00:50:20.289Z,99936.38
2018-12-10T00:55:23.250Z,99948.38
2018-12-10T01:00:26.082Z,99963.23
2018-12-10T01:05:28.916Z,99973.69
2018-12-10T01:10:31.720Z,99986.70
2018-12-10T01:15:34.548Z,99984.02
2018-12-10T01:20:37.379Z,99995.08
2018-12-10T01:25:40.333Z,99989.38
2018-12-10T01:30:43.021Z,100000.91
2018-12-10T01:35:45.704Z,100014.74
2018-12-10T01:40:48.620Z,100017.52
2018-12-10T01:45:51.379Z,100021.40
2018-12-10T01:50:54.264Z,100042.16
2018-12-10T01:55:57.124Z,100036.77
2018-12-10T02:00:59.993Z,100047.55
2018-12-10T02:06:02.720Z,100056.67
2018-12-10T02:11:05.564Z,100066.55
2018-12-10T02:16:09.533Z,100074.59
2018-12-10T02:21:12.503Z,100067.49
2018-12-10T02:26:15.016Z,100080.48
2018-12-10T02:31:18.133Z,100075.95
2018-12-10T02:36:20.979Z,100083.52
2018-12-10T02:41:23.845Z,100087.73
2018-12-10T02:46:26.576Z,100099.02
2018-12-10T02:51:29.381Z,100107.75
2018-12-10T02:56:32.119Z,100117.17
2018-12-10T03:01:35.129Z,100121.57
2018-12-10T03:06:38.087Z,100118.72
2018-12-10T03:11:41.090Z,100117.05
2018-12-10T03:16:44.172Z,100127.09
2018-12-10T03:21:46.928Z,100130.66
2018-12-10T03:26:49.685Z,100148.39
2018-12-10T03:31:52.723Z,100147.38
2018-12-10T03:36:55.444Z,100149.44
2018-12-10T03:41:58.348Z,100153.00
2018-12-10T03:47:01.220Z,100165.91
2018-12-10T03:52:04.116Z,100183.16
2018-12-10T03:57:06.874Z,100186.13
2018-12-10T04:02:09.741Z,100201.62
2018-12-10T04:07:12.463Z,100208.07
2018-12-10T04:12:15.401Z,100220.98
2018-12-10T04:17:18.266Z,100226.22
2018-12-10T04:22:21.061Z,100216.28
2018-12-10T04:27:23.992Z,100224.48
2018-12-10T04:32:26.815Z,100236.55
2018-12-10T04:37:29.524Z,100244.02
2018-12-10T04:42:32.260Z,100247.13
2018-12-10T04:47:35.237Z,100253.13
2018-12-10T04:52:37.956Z,100253.90
2018-12-10T04:57:40.628Z,100263.32
2018-12-10T05:02:43.563Z,100262.84
2018-12-10T05:07:46.515Z,100278.44
2018-12-10T05:12:49.312Z,100282.83
2018-12-10T05:17:51.977Z,100291.41
2018-12-10T05:22:54.753Z,100297.03
2018-12-10T05:27:57.540Z,100299.23
2018-12-10T05:33:00.305Z,100304.33
2018-12-10T05:38:03.053Z,100316.02
2018-12-10T05:43:05.866Z,100311.93
2018-12-10T05:48:08.718Z,100328.65
2018-12-10T05:53:11.519Z,100326.97
2018-12-10T05:58:14.231Z,100323.55
2018-12-10T06:03:16.847Z,100338.59
2018-12-10T06:08:19.688Z,100342.92
2018-12-10T06:13:22.284Z,100345.59
2018-12-10T06:18:24.887Z,100360.39
2018-12-10T06:23:27.743Z,100372.84
2018-12-10T06:28:30.709Z,100367.98
2018-12-10T06:33:33.592Z,100394.16
2018-12-10T06:38:36.346Z,100388.03
2018-12-10T06:43:39.052Z,100400.11
2018-12-10T06:48:41.775Z,100414.91
2018-12-10T06:53:44.821Z,100413.08
2018-12-10T06:58:47.745Z,100424.46
2018-12-10T07:03:53.443Z,100421.27
2018-12-10T07:08:56.143Z,100424.45
2018-12-10T07:13:58.892Z,100439.25
2018-12-10T07:19:01.689Z,100446.44
2018-12-10T07:24:04.588Z,100450.15
2018-12-10T07:29:07.272Z,100455.64
2018-12-10T07:34:10.243Z,100457.77
2018-12-10T07:39:12.933Z,100450.48
2018-12-10T07:44:15.732Z,100454.80
2018-12-10T07:49:18.770Z,100462.70
2018-12-10T07:54:21.541Z,100474.55
2018-12-10T07:59:24.403Z,100467.56
2018-12-10T08:04:27.137Z,100475.62
2018-12-10T08:09:29.884Z,100474.72
2018-12-10T08:14:33.640Z,100470.09
2018-12-10T08:19:53.383Z,100488.08
2018-12-10T08:24:56.020Z,100488.37
2018-12-10T08:29:58.773Z,100481.17
2018-12-10T08:35:01.647Z,100480.16
2018-12-10T08:40:04.906Z,100492.08
2018-12-10T08:45:07.920Z,100493.97
2018-12-10T08:50:10.921Z,100491.27
2018-12-10T08:55:13.713Z,100497.02
2018-12-10T09:00:16.556Z,100502.51
2018-12-10T09:05:19.637Z,100514.45
2018-12-10T09:10:22.641Z,100528.50
2018-12-10T09:15:28.261Z,100520.53
2018-12-10T09:20:31.273Z,100521.66
2018-12-10T09:25:34.247Z,100526.91
2018-12-10T09:30:37.155Z,100517.52
2018-12-10T09:35:40.398Z,100536.22
2018-12-10T09:40:43.059Z,100524.78
2018-12-10T09:45:45.756Z,100539.13
2018-12-10T09:50:48.532Z,100549.00
2018-12-10T09:55:51.315Z,100547.33
2018-12-10T10:00:54.143Z,100559.81
2018-12-10T10:05:57.020Z,100568.27
2018-12-10T10:10:59.769Z,100568.14
2018-12-10T10:16:02.614Z,100566.98
2018-12-10T10:21:11.302Z,100580.55
2018-12-10T10:26:10.409Z,100572.97
2018-12-10T10:31:13.145Z,100587.08
2018-12-10T10:36:15.873Z,100586.11
2018-12-10T10:41:18.780Z,100569.54
2018-12-10T10:46:21.468Z,100565.05
2018-12-10T10:51:24.327Z,100573.88
2018-12-10T10:56:27.221Z,100577.06
2018-12-10T11:01:35.664Z,100577.81
2018-12-10T11:06:38.628Z,100572.52
2018-12-10T11:11:41.631Z,100572.97
2018-12-10T11:16:45.433Z,100581.08
2018-12-10T11:21:48.243Z,100576.92
2018-12-10T11:26:50.968Z,100583.38
2018-12-10T11:31:53.855Z,100581.02
2018-12-10T11:36:56.701Z,100579.34
2018-12-10T11:41:59.552Z,100587.09
2018-12-10T11:47:02.816Z,100571.53
2018-12-10T11:52:05.695Z,100577.98
2018-12-10T11:57:08.704Z,100583.06
2018-12-10T12:02:11.799Z,100577.38
2018-12-10T12:07:14.627Z,100585.28
2018-12-10T12:12:17.711Z,100580.02
2018-12-10T12:17:20.641Z,100571.37
2018-12-10T12:22:23.492Z,100570.07
2018-12-10T12:27:26.307Z,100568.48
2018-12-10T12:32:29.020Z,100562.94
2018-12-10T12:37:31.996Z,100570.69
2018-12-10T12:42:34.881Z,100568.84
2018-12-10T12:47:37.811Z,100571.04
2018-12-10T12:52:40.660Z,100571.75
2018-12-10T12:57:43.592Z,100563.77
2018-12-10T13:02:46.395Z,100561.30
2018-12-10T13:07:49.333Z,100562.20
2018-12-10T13:12:52.125Z,100556.28
2018-12-10T13:17:55.016Z,100566.45
2018-12-10T13:22:57.872Z,100563.06
2018-12-10T13:28:00.743Z,100560.97
2018-12-10T13:33:03.719Z,100567.88
2018-12-10T13:38:12.353Z,100572.59
2018-12-10T13:43:11.776Z,100566.20
2018-12-10T13:48:14.817Z,100581.53
2018-12-10T13:53:17.641Z,100582.98
2018-12-10T13:58:20.581Z,100585.86
2018-12-10T14:03:23.569Z,100584.27
2018-12-10T14:08:26.184Z,100588.15
2018-12-10T14:13:29.010Z,100594.22
2018-12-10T14:18:32.048Z,100592.09
2018-12-10T14:23:34.872Z,100602.20
2018-12-10T14:28:37.848Z,100592.02
2018-12-10T14:33:40.789Z,100585.39
2018-12-10T14:38:43.578Z,100592.00
2018-12-10T14:43:46.381Z,100608.85
2018-12-10T14:48:49.241Z,100595.31
2018-12-10T14:53:52.330Z,100591.14
2018-12-10T14:58:55.216Z,100592.17
2018-12-10T15:03:58.156Z,100590.48
2018-12-10T15:09:01.111Z,100592.74
2018-12-10T15:14:04.242Z,100595.41
2018-12-10T15:19:07.266Z,100587.28
2018-12-10T15:24:09.903Z,100595.63
2018-12-10T15:29:12.653Z,100592.09
2018-12-10T15:34:15.413Z,100589.60
2018-12-10T15:39:18.157Z,100581.98
2018-12-10T15:44:20.995Z,100580.69
2018-12-10T15:49:23.681Z,100566.97
2018-12-10T15:54:26.633Z,100567.09
2018-12-10T15:59:29.360Z,100571.51
2018-12-10T16:04:33.908Z,100570.58
2018-12-10T16:09:36.870Z,100576.34
2018-12-10T16:14:39.529Z,100567.01
2018-12-10T16:19:42.329Z,100585.77
2018-12-10T16:24:45.417Z,100582.79
2018-12-10T16:29:48.173Z,100594.02
2018-12-10T16:34:50.952Z,100589.78
2018-12-10T16:39:53.779Z,100584.11
2018-12-10T16:44:56.568Z,100571.72
2018-12-10T16:49:59.504Z,100581.25
2018-12-10T16:55:02.244Z,100589.84
2018-12-10T17:00:09.878Z,100587.27
2018-12-10T17:05:12.933Z,100590.34
2018-12-10T17:10:15.878Z,100590.55
2018-12-10T17:15:18.800Z,100574.69
2018-12-10T17:20:22.447Z,100577.22
2018-12-10T17:25:25.317Z,100578.52
2018-12-10T17:30:28.157Z,100587.09
2018-12-10T17:35:30.863Z,100579.66
2018-12-10T17:40:33.743Z,100581.98
2018-12-10T17:45:37.312Z,100580.45
2018-12-10T17:50:41.363Z,100585.34
2018-12-10T17:55:44.225Z,100577.08
2018-12-10T18:00:47.365Z,100587.67
2018-12-10T18:05:50.208Z,100577.48
2018-12-10T18:10:53.169Z,100557.89
2018-12-10T18:15:56.248Z,100551.84
2018-12-10T18:20:59.149Z,100554.95
2018-12-10T18:26:02.057Z,100551.45
2018-12-10T18:31:04.944Z,100548.87
2018-12-10T18:36:07.830Z,100544.95
2018-12-10T18:41:10.844Z,100546.63
2018-12-10T18:46:13.853Z,100547.14
2018-12-10T18:51:16.712Z,100538.30
2018-12-10T18:56:20.677Z,100538.45
2018-12-10T19:01:23.558Z,100540.49
2018-12-10T19:06:26.529Z,100543.86
2018-12-10T19:11:29.592Z,100549.13
2018-12-10T19:16:32.380Z,100549.91
2018-12-10T19:21:35.139Z,100546.09
2018-12-10T19:26:38.064Z,100546.69
2018-12-10T19:31:40.916Z,100553.27
2018-12-10T19:36:43.747Z,100553.97
2018-12-10T19:41:46.426Z,100553.08
2018-12-10T19:46:49.226Z,100546.19
2018-12-10T19:51:52.173Z,100549.41
2018-12-10T19:56:55.052Z,100545.89
2018-12-10T20:01:58.348Z,100545.00
2018-12-10T20:07:06.340Z,100551.14
2018-12-10T20:12:09.841Z,100547.27
2018-12-10T20:17:13.712Z,100549.84
2018-12-10T20:22:17.365Z,100552.42
2018-12-10T20:27:20.236Z,100551.98
2018-12-10T20:32:23.646Z,100556.20
2018-12-10T20:37:26.860Z,100564.19
2018-12-10T20:42:29.959Z,100545.05
2018-12-10T20:47:33.389Z,100558.63
2018-12-10T20:52:37.487Z,100558.63
2018-12-10T20:57:41.593Z,100556.23
2018-12-10T21:02:44.629Z,100567.84
2018-12-10T21:07:47.850Z,100557.47
2018-12-10T21:12:50.897Z,100558.97
2018-12-10T21:17:53.552Z,100574.83
2018-12-10T21:22:57.601Z,100579.20
2018-12-10T21:28:01.228Z,100586.55
2018-12-10T21:33:04.696Z,100586.09
2018-12-10T21:38:07.599Z,100593.33
2018-12-10T21:43:10.656Z,100578.90
2018-12-10T21:48:14.464Z,100579.85
2018-12-10T21:53:17.249Z,100578.76
2018-12-10T21:58:20.318Z,100577.61
2018-12-10T22:03:23.421Z,100575.94
2018-12-10T22:08:26.671Z,100579.05
2018-12-10T22:13:29.486Z,100581.83
2018-12-10T22:18:32.278Z,100582.63
2018-12-10T22:23:35.181Z,100588.12
2018-12-10T22:28:37.936Z,100584.65
2018-12-10T22:33:40.634Z,100590.56
2018-12-10T22:38:43.533Z,100590.81
2018-12-10T22:43:46.447Z,100590.30
2018-12-10T22:48:49.396Z,100597.98
2018-12-10T22:53:52.193Z,100591.91
2018-12-10T22:58:54.789Z,100584.16
2018-12-10T23:03:57.764Z,100590.11
2018-12-10T23:09:00.636Z,100581.59
2018-12-10T23:14:03.621Z,100587.14
2018-12-10T23:19:06.516Z,100586.24
2018-12-10T23:24:09.180Z,100587.92
2018-12-10T23:29:12.197Z,100594.38
2018-12-10T23:34:14.914Z,100586.19
2018-12-10T23:39:17.640Z,100593.83
2018-12-10T23:44:26.004Z,100590.22
2018-12-10T23:49:28.860Z,100586.34
2018-12-10T23:54:31.591Z,100589.31
2018-12-10T23:59:48.566Z,100593.58
